Time,TemperatureF,DewpointF,PressureIn,WindDirection,WindDirectionDegrees,WindSpeedMPH,WindSpeedGustMPH,Humidity,HourlyPrecipIn,Conditions,Clouds,dailyrainin,SoftwareType,DateUTC
2013-07-15 00:03:00,70.2,66.1,30.24,South,180,0.0,0.0,87,0.00,,,0.00,WUHU21623XXSP,2013-07-15 04:03:00,
2013-07-15 00:08:00,70.2,66.1,30.23,ESE,112,0.0,0.0,87,0.00,,,0.00,WUHU21623XXSP,2013-07-15 04:08:00,
2013-07-15 00:13:00,70.2,66.1,30.24,South,180,0.0,0.0,87,0.00,,,0.00,WUHU21623XXSP,2013-07-15 04:13:00,
2013-07-15 00:18:00,70.2,66.1,30.24,South,180,0.0,0.0,87,0.00,,,0.00,WUHU21623XXSP,2013-07-15 04:18:00,
2013-07-15 00:23:00,70.2,66.1,30.24,SSW,202,0.0,0.0,87,0.00,,,0.00,WUHU21623XXSP,2013-07-15 04:23:00,
2013-07-15 00:28:00,70.2,66.4,30.24,SSW,202,0.0,0.0,88,0.00,,,0.00,WUHU21623XXSP,2013-07-15 04:28:00,
2013-07-15 00:33:00,70.3,66.3,30.25,East,90,0.0,0.0,87,0.00,,,0.00,WUHU21623XXSP,2013-07-15 04:33:00,
2013-07-15 00:38:00,70.3,66.3,30.25,East,90,0.0,0.0,87,0.00,,,0.00,WUHU21623XXSP,2013-07-15 04:38:00,
2013-07-15 00:44:00,70.3,66.3,30.25,South,180,0.0,0.0,87,0.00,,,0.00,WUHU21623XXSP,2013-07-15 04:44:00,
2013-07-15 00:49:00,70.3,66.3,30.24,NNE,22,0.0,0.0,87,0.00,,,0.00,WUHU21623XXSP,2013-07-15 04:49:00,
2013-07-15 00:54:00,70.3,66.3,30.24,NNE,22,0.0,0.0,87,0.00,,,0.00,WUHU21623XXSP,2013-07-15 04:54:00,
2013-07-15 00:59:00,70.2,66.4,30.25,NNE,22,0.0,0.0,88,0.00,,,0.00,WUHU21623XXSP,2013-07-15 04:59:00,
2013-07-15 01:04:00,70.2,66.4,30.24,East,90,0.0,0.0,88,0.00,,,0.00,WUHU21623XXSP,2013-07-15 05:04:00,
2013-07-15 01:09:00,70.2,66.1,30.24,ESE,112,0.0,0.0,87,0.00,,,0.00,WUHU21623XXSP,2013-07-15 05:09:00,
2013-07-15 01:14:00,70.2,66.4,30.24,ESE,112,0.0,0.0,88,0.00,,,0.00,WUHU21623XXSP,2013-07-15 05:14:00,
2013-07-15 01:19:00,70.2,66.4,30.24,East,90,0.0,0.0,88,0.00,,,0.00,WUHU21623XXSP,2013-07-15 05:19:00,
2013-07-15 01:24:00,70.2,66.4,30.24,East,90,0.0,0.0,88,0.00,,,0.00,WUHU21623XXSP,2013-07-15 05:24:00,
2013-07-15 01:29:00,69.8,66.1,30.24,East,90,0.0,0.0,88,0.00,,,0.00,WUHU21623XXSP,2013-07-15 05:29:00,
2013-07-15 01:34:00,69.6,65.9,30.25,NNE,22,0.0,0.0,88,0.00,,,0.00,WUHU21623XXSP,2013-07-15 05:34:00,
2013-07-15 01:39:00,69.6,65.9,30.25,NNE,22,0.0,0.0,88,0.00,,,0.00,WUHU21623XXSP,2013-07-15 05:39:00,
2013-07-15 01:44:00,69.4,65.7,30.25,WNW,292,0.0,0.0,88,0.00,,,0.00,WUHU21623XXSP,2013-07-15 05:44:00,
2013-07-15 01:49:00,69.4,65.7,30.25,SSW,202,0.0,0.0,88,0.00,,,0.00,WUHU21623XXSP,2013-07-15 05:49:00,
2013-07-15 01:54:00,69.4,65.7,30.25,South,180,0.0,0.0,88,0.00,,,0.00,WUHU21623XXSP,2013-07-15 05:54:00,
2013-07-15 01:59:00,69.1,65.3,30.25,East,90,0.0,0.0,88,0.00,,,0.00,WUHU21623XXSP,2013-07-15 05:59:00,
2013-07-15 02:04:00,69.1,65.3,30.26,East,90,0.0,0.0,88,0.00,,,0.00,WUHU21623XXSP,2013-07-15 06:04:00,
2013-07-15 02:09:00,69.1,65.3,30.26,ESE,112,0.0,0.0,88,0.00,,,0.00,WUHU21623XXSP,2013-07-15 06:09:00,
2013-07-15 02:14:00,68.9,65.2,30.26,South,180,0.0,0.0,88,0.00,,,0.00,WUHU21623XXSP,2013-07-15 06:14:00,
2013-07-15 02:19:00,68.9,65.2,30.26,East,90,0.0,0.0,88,0.00,,,0.00,WUHU21623XXSP,2013-07-15 06:19:00,
2013-07-15 02:24:00,68.9,65.2,30.25,ESE,112,0.0,0.0,88,0.00,,,0.00,WUHU21623XXSP,2013-07-15 06:24:00,
2013-07-15 02:29:00,68.9,65.2,30.25,ESE,112,0.0,0.0,88,0.00,,,0.00,WUHU21623XXSP,2013-07-15 06:29:00,
2013-07-15 02:34:00,68.9,65.2,30.25,ESE,112,0.0,0.0,88,0.00,,,0.00,WUHU21623XXSP,2013-07-15 06:34:00,
2013-07-15 02:39:00,68.7,65.0,30.25,South,180,0.0,0.0,88,0.00,,,0.00,WUHU21623XXSP,2013-07-15 06:39:00,
2013-07-15 02:44:00,68.5,64.8,30.25,South,180,0.0,0.0,88,0.00,,,0.00,WUHU21623XXSP,2013-07-15 06:44:00,
2013-07-15 02:49:00,68.5,64.8,30.25,ESE,112,0.0,0.0,88,0.00,,,0.00,WUHU21623XXSP,2013-07-15 06:49:00,
2013-07-15 02:54:00,68.5,64.8,30.25,East,90,0.0,0.0,88,0.00,,,0.00,WUHU21623XXSP,2013-07-15 06:54:00,
2013-07-15 02:59:00,68.5,64.8,30.25,East,90,0.0,0.0,88,0.00,,,0.00,WUHU21623XXSP,2013-07-15 06:59:00,
2013-07-15 03:04:00,68.4,64.6,30.25,East,90,0.0,0.0,88,0.00,,,0.00,WUHU21623XXSP,2013-07-15 07:04:00,
2013-07-15 03:10:00,68.4,64.6,30.25,NNE,22,0.0,0.0,88,0.00,,,0.00,WUHU21623XXSP,2013-07-15 07:10:00,
2013-07-15 03:15:00,68.2,64.5,30.25,NNE,22,0.0,0.0,88,0.00,,,0.00,WUHU21623XXSP,2013-07-15 07:15:00,
2013-07-15 03:20:00,68.2,64.5,30.25,NNE,22,0.0,0.0,88,0.00,,,0.00,WUHU21623XXSP,2013-07-15 07:20:00,
2013-07-15 03:25:00,68.2,64.5,30.25,NNE,22,0.0,0.0,88,0.00,,,0.00,WUHU21623XXSP,2013-07-15 07:25:00,
2013-07-15 03:30:00,68.0,64.3,30.25,NNE,22,0.0,0.0,88,0.00,,,0.00,WUHU21623XXSP,2013-07-15 07:30:00,
2013-07-15 03:35:00,67.8,64.1,30.25,East,90,0.0,0.0,88,0.00,,,0.00,WUHU21623XXSP,2013-07-15 07:35:00,
2013-07-15 03:40:00,67.8,64.1,30.25,East,90,0.0,0.0,88,0.00,,,0.00,WUHU21623XXSP,2013-07-15 07:40:00,
2013-07-15 03:45:00,67.8,64.1,30.25,East,90,0.0,0.0,88,0.00,,,0.00,WUHU21623XXSP,2013-07-15 07:45:00,
2013-07-15 03:50:00,67.6,63.9,30.25,ESE,112,0.0,0.0,88,0.00,,,0.00,WUHU21623XXSP,2013-07-15 07:50:00,
2013-07-15 03:55:00,67.6,63.9,30.25,ESE,112,0.0,0.0,88,0.00,,,0.00,WUHU21623XXSP,2013-07-15 07:55:00,
2013-07-15 04:00:00,67.6,63.9,30.25,ESE,112,0.0,0.0,88,0.00,,,0.00,WUHU21623XXSP,2013-07-15 08:00:00,
2013-07-15 04:05:00,67.6,63.9,30.25,ESE,112,0.0,0.0,88,0.00,,,0.00,WUHU21623XXSP,2013-07-15 08:05:00,
2013-07-15 04:10:00,67.6,63.9,30.25,ESE,112,0.0,0.0,88,0.00,,,0.00,WUHU21623XXSP,2013-07-15 08:10:00,
2013-07-15 04:15:00,67.5,63.8,30.25,ESE,112,0.0,0.0,88,0.00,,,0.00,WUHU21623XXSP,2013-07-15 08:15:00,
2013-07-15 04:20:00,67.5,63.8,30.26,NNE,22,0.0,0.0,88,0.00,,,0.00,WUHU21623XXSP,2013-07-15 08:20:00,
2013-07-15 04:25:00,67.3,63.6,30.26,East,90,0.0,0.0,88,0.00,,,0.00,WUHU21623XXSP,2013-07-15 08:25:00,
2013-07-15 04:30:00,67.3,63.6,30.26,East,90,0.0,0.0,88,0.00,,,0.00,WUHU21623XXSP,2013-07-15 08:30:00,
2013-07-15 04:35:00,67.3,63.6,30.27,NNE,22,0.0,0.0,88,0.00,,,0.00,WUHU21623XXSP,2013-07-15 08:35:00,
2013-07-15 04:40:00,67.3,63.6,30.27,East,90,0.0,0.0,88,0.00,,,0.00,WUHU21623XXSP,2013-07-15 08:40:00,
2013-07-15 04:45:00,67.1,63.4,30.27,South,180,0.0,0.0,88,0.00,,,0.00,WUHU21623XXSP,2013-07-15 08:45:00,
2013-07-15 04:50:00,67.1,63.4,30.27,South,180,0.0,0.0,88,0.00,,,0.00,WUHU21623XXSP,2013-07-15 08:50:00,
2013-07-15 04:55:00,66.9,63.2,30.27,South,180,0.0,0.0,88,0.00,,,0.00,WUHU21623XXSP,2013-07-15 08:55:00,
2013-07-15 05:00:00,66.7,63.0,30.27,East,90,0.0,0.0,88,0.00,,,0.00,WUHU21623XXSP,2013-07-15 09:00:00,
2013-07-15 05:05:00,66.7,63.0,30.27,ESE,112,0.0,0.0,88,0.00,,,0.00,WUHU21623XXSP,2013-07-15 09:05:00,
2013-07-15 05:10:00,66.7,63.0,30.27,East,90,0.0,0.0,88,0.00,,,0.00,WUHU21623XXSP,2013-07-15 09:10:00,
2013-07-15 05:15:00,66.7,63.0,30.27,East,90,0.0,0.0,88,0.00,,,0.00,WUHU21623XXSP,2013-07-15 09:15:00,
2013-07-15 05:20:00,66.6,62.9,30.27,East,90,0.0,0.0,88,0.00,,,0.00,WUHU21623XXSP,2013-07-15 09:20:00,
2013-07-15 05:25:00,66.6,62.9,30.27,East,90,0.0,0.0,88,0.00,,,0.00,WUHU21623XXSP,2013-07-15 09:25:00,
2013-07-15 05:30:00,66.6,62.9,30.27,East,90,0.0,0.0,88,0.00,,,0.00,WUHU21623XXSP,2013-07-15 09:30:00,
2013-07-15 05:35:00,66.6,62.9,30.27,East,90,0.0,0.0,88,0.00,,,0.00,WUHU21623XXSP,2013-07-15 09:35:00,
2013-07-15 05:41:00,66.6,62.9,30.27,ESE,112,0.0,0.0,88,0.00,,,0.00,WUHU21623XXSP,2013-07-15 09:41:00,
2013-07-15 05:46:00,66.4,62.7,30.27,ESE,112,0.0,0.0,88,0.00,,,0.00,WUHU21623XXSP,2013-07-15 09:46:00,
2013-07-15 05:51:00,66.6,62.9,30.27,ESE,112,0.0,0.0,88,0.00,,,0.00,WUHU21623XXSP,2013-07-15 09:51:00,
2013-07-15 05:56:00,66.4,62.7,30.27,ESE,112,0.0,0.0,88,0.00,,,0.00,WUHU21623XXSP,2013-07-15 09:56:00,
2013-07-15 06:01:00,66.4,62.7,30.27,NNE,22,0.0,0.0,88,0.00,,,0.00,WUHU21623XXSP,2013-07-15 10:01:00,
2013-07-15 06:06:00,66.4,62.7,30.27,NNE,22,0.0,0.0,88,0.00,,,0.00,WUHU21623XXSP,2013-07-15 10:06:00,
2013-07-15 06:11:00,66.4,62.7,30.27,West,270,0.0,0.0,88,0.00,,,0.00,WUHU21623XXSP,2013-07-15 10:11:00,
2013-07-15 06:16:00,66.2,62.5,30.28,West,270,0.0,0.0,88,0.00,,,0.00,WUHU21623XXSP,2013-07-15 10:16:00,
2013-07-15 06:21:00,66.0,62.3,30.28,West,270,0.0,0.0,88,0.00,,,0.00,WUHU21623XXSP,2013-07-15 10:21:00,
2013-07-15 06:26:00,66.0,62.3,30.28,West,270,0.0,0.0,88,0.00,,,0.00,WUHU21623XXSP,2013-07-15 10:26:00,
2013-07-15 06:31:00,66.0,62.3,30.28,ESE,112,0.0,0.0,88,0.00,,,0.00,WUHU21623XXSP,2013-07-15 10:31:00,
2013-07-15 06:36:00,66.0,62.3,30.28,East,90,0.0,0.0,88,0.00,,,0.00,WUHU21623XXSP,2013-07-15 10:36:00,
2013-07-15 06:41:00,66.0,62.3,30.29,East,90,0.0,0.0,88,0.00,,,0.00,WUHU21623XXSP,2013-07-15 10:41:00,
2013-07-15 06:46:00,65.8,62.2,30.29,ESE,112,0.0,0.0,88,0.00,,,0.00,WUHU21623XXSP,2013-07-15 10:46:00,
2013-07-15 06:51:00,65.8,62.2,30.29,ESE,112,0.0,0.0,88,0.00,,,0.00,WUHU21623XXSP,2013-07-15 10:51:00,
2013-07-15 06:56:00,66.0,62.3,30.29,ESE,112,0.0,0.0,88,0.00,,,0.00,WUHU21623XXSP,2013-07-15 10:56:00,
2013-07-15 07:01:00,66.0,62.3,30.29,East,90,0.0,0.0,88,0.00,,,0.00,WUHU21623XXSP,2013-07-15 11:01:00,
2013-07-15 07:06:00,66.0,62.3,30.29,East,90,0.0,0.0,88,0.00,,,0.00,WUHU21623XXSP,2013-07-15 11:06:00,
2013-07-15 07:11:00,66.2,62.5,30.30,East,90,0.0,0.0,88,0.00,,,0.00,WUHU21623XXSP,2013-07-15 11:11:00,
2013-07-15 07:16:00,66.4,62.7,30.30,East,90,0.0,0.0,88,0.00,,,0.00,WUHU21623XXSP,2013-07-15 11:16:00,
2013-07-15 07:21:00,66.4,62.7,30.29,ESE,112,0.0,0.0,88,0.00,,,0.00,WUHU21623XXSP,2013-07-15 11:21:00,
2013-07-15 07:26:00,66.4,62.7,30.29,East,90,0.0,0.0,88,0.00,,,0.00,WUHU21623XXSP,2013-07-15 11:26:00,
2013-07-15 07:31:00,66.6,62.9,30.30,East,90,0.0,0.0,88,0.00,,,0.00,WUHU21623XXSP,2013-07-15 11:31:00,
2013-07-15 07:36:00,66.7,63.0,30.30,NNE,22,0.0,0.0,88,0.00,,,0.00,WUHU21623XXSP,2013-07-15 11:36:00,
2013-07-15 07:41:00,66.7,63.0,30.30,NNE,22,0.0,0.0,88,0.00,,,0.00,WUHU21623XXSP,2013-07-15 11:41:00,
2013-07-15 07:46:00,66.9,63.2,30.30,NNE,22,0.0,0.0,88,0.00,,,0.00,WUHU21623XXSP,2013-07-15 11:46:00,
2013-07-15 07:51:00,67.1,63.4,30.30,NNE,22,0.0,0.0,88,0.00,,,0.00,WUHU21623XXSP,2013-07-15 11:51:00,
2013-07-15 07:56:00,67.3,63.6,30.30,ESE,112,0.0,0.0,88,0.00,,,0.00,WUHU21623XXSP,2013-07-15 11:56:00,
2013-07-15 08:01:00,67.8,64.1,30.30,ESE,112,0.0,0.0,88,0.00,,,0.00,WUHU21623XXSP,2013-07-15 12:01:00,
2013-07-15 08:06:00,67.8,64.1,30.30,ESE,112,0.0,0.0,88,0.00,,,0.00,WUHU21623XXSP,2013-07-15 12:06:00,
2013-07-15 08:11:00,68.2,64.5,30.30,NNE,22,0.0,0.0,88,0.00,,,0.00,WUHU21623XXSP,2013-07-15 12:11:00,
2013-07-15 08:16:00,68.7,65.0,30.30,NNE,22,0.0,0.0,88,0.00,,,0.00,WUHU21623XXSP,2013-07-15 12:16:00,
2013-07-15 08:21:00,69.4,65.7,30.30,NNE,22,0.0,0.0,88,0.00,,,0.00,WUHU21623XXSP,2013-07-15 12:21:00,
2013-07-15 08:27:00,70.2,66.4,30.30,West,270,0.0,0.0,88,0.00,,,0.00,WUHU21623XXSP,2013-07-15 12:27:00,
2013-07-15 08:32:00,70.9,67.1,30.30,West,270,0.0,0.0,88,0.00,,,0.00,WUHU21623XXSP,2013-07-15 12:32:00,
2013-07-15 08:37:00,70.9,67.1,30.30,West,270,0.0,0.0,88,0.00,,,0.00,WUHU21623XXSP,2013-07-15 12:37:00,
2013-07-15 08:42:00,71.6,67.9,30.30,West,270,0.0,0.0,88,0.00,,,0.00,WUHU21623XXSP,2013-07-15 12:42:00,
2013-07-15 08:47:00,72.3,68.6,30.30,WNW,292,0.0,0.0,88,0.00,,,0.00,WUHU21623XXSP,2013-07-15 12:47:00,
2013-07-15 08:52:00,72.7,68.9,30.30,WNW,292,0.0,0.0,88,0.00,,,0.00,WUHU21623XXSP,2013-07-15 12:52:00,
2013-07-15 08:57:00,73.6,69.8,30.31,North,0,0.0,0.0,88,0.00,,,0.00,WUHU21623XXSP,2013-07-15 12:57:00,
2013-07-15 09:02:00,73.6,69.8,30.31,North,0,0.0,0.0,88,0.00,,,0.00,WUHU21623XXSP,2013-07-15 13:02:00,
2013-07-15 09:07:00,73.9,70.2,30.31,North,0,0.0,0.0,88,0.00,,,0.00,WUHU21623XXSP,2013-07-15 13:07:00,
2013-07-15 09:12:00,74.7,70.9,30.31,North,0,0.0,0.0,88,0.00,,,0.00,WUHU21623XXSP,2013-07-15 13:12:00,
2013-07-15 09:17:00,74.5,70.7,30.32,North,0,0.0,1.3,88,0.00,,,0.00,WUHU21623XXSP,2013-07-15 13:17:00,
2013-07-15 09:22:00,75.0,71.3,30.32,North,0,0.0,1.3,88,0.00,,,0.00,WUHU21623XXSP,2013-07-15 13:22:00,
2013-07-15 09:27:00,75.7,72.0,30.32,WNW,292,0.0,0.0,88,0.00,,,0.00,WUHU21623XXSP,2013-07-15 13:27:00,
2013-07-15 09:32:00,76.3,72.5,30.32,WNW,292,0.0,0.0,88,0.00,,,0.00,WUHU21623XXSP,2013-07-15 13:32:00,
2013-07-15 09:37:00,77.2,73.0,30.32,SSW,202,0.0,0.0,87,0.00,,,0.00,WUHU21623XXSP,2013-07-15 13:37:00,
2013-07-15 09:42:00,78.6,74.1,30.32,North,0,0.0,0.0,86,0.00,,,0.00,WUHU21623XXSP,2013-07-15 13:42:00,
2013-07-15 09:47:00,79.0,74.5,30.32,South,180,0.0,0.0,86,0.00,,,0.00,WUHU21623XXSP,2013-07-15 13:47:00,
2013-07-15 09:52:00,79.3,74.1,30.32,North,0,0.0,0.0,84,0.00,,,0.00,WUHU21623XXSP,2013-07-15 13:52:00,
2013-07-15 09:57:00,79.2,73.9,30.31,North,0,0.0,0.0,84,0.00,,,0.00,WUHU21623XXSP,2013-07-15 13:57:00,
2013-07-15 10:02:00,79.3,74.1,30.32,North,0,0.0,0.0,84,0.00,,,0.00,WUHU21623XXSP,2013-07-15 14:02:00,
2013-07-15 10:07:00,79.7,74.1,30.31,West,270,0.0,0.0,83,0.00,,,0.00,WUHU21623XXSP,2013-07-15 14:07:00,
2013-07-15 10:12:00,79.9,73.9,30.32,North,0,0.0,0.0,82,0.00,,,0.00,WUHU21623XXSP,2013-07-15 14:12:00,
2013-07-15 10:17:00,80.4,74.4,30.32,WNW,292,0.0,0.0,82,0.00,,,0.00,WUHU21623XXSP,2013-07-15 14:17:00,
2013-07-15 10:22:00,80.4,74.4,30.32,SSW,202,3.3,3.8,82,0.00,,,0.00,WUHU21623XXSP,2013-07-15 14:22:00,
2013-07-15 10:27:00,80.4,74.1,30.32,WNW,292,0.0,3.8,81,0.00,,,0.00,WUHU21623XXSP,2013-07-15 14:27:00,
2013-07-15 10:32:00,80.8,74.5,30.32,WNW,292,1.2,3.8,81,0.00,,,0.00,WUHU21623XXSP,2013-07-15 14:32:00,
2013-07-15 10:37:00,81.0,75.3,30.32,WNW,292,0.0,1.3,83,0.00,,,0.00,WUHU21623XXSP,2013-07-15 14:37:00,
2013-07-15 10:43:00,81.5,75.2,30.32,WNW,292,1.7,1.9,81,0.00,,,0.00,WUHU21623XXSP,2013-07-15 14:43:00,
2013-07-15 10:48:00,81.7,75.0,30.32,WNW,292,1.2,1.9,80,0.00,,,0.00,WUHU21623XXSP,2013-07-15 14:48:00,
2013-07-15 10:53:00,81.0,73.9,30.32,WNW,292,0.0,1.9,79,0.00,,,0.00,WUHU21623XXSP,2013-07-15 14:53:00,
2013-07-15 10:59:00,81.1,74.8,30.32,SSW,202,1.2,1.3,81,0.00,,,0.00,WUHU21623XXSP,2013-07-15 14:59:00,
2013-07-15 11:04:00,82.0,75.4,30.32,West,270,1.2,1.3,80,0.00,,,0.00,WUHU21623XXSP,2013-07-15 15:04:00,
2013-07-15 11:09:00,82.6,75.1,30.32,West,270,0.0,1.9,78,0.00,,,0.00,WUHU21623XXSP,2013-07-15 15:09:00,
2013-07-15 11:14:00,82.8,74.8,30.32,WNW,292,0.0,1.9,77,0.00,,,0.00,WUHU21623XXSP,2013-07-15 15:14:00,
2013-07-15 11:20:00,82.6,74.7,30.32,WNW,292,1.4,1.7,77,0.00,,,0.00,WUHU21623XXSP,2013-07-15 15:20:00,
2013-07-15 11:25:00,82.2,74.7,30.32,WNW,292,1.4,1.7,78,0.00,,,0.00,WUHU21623XXSP,2013-07-15 15:25:00,
2013-07-15 11:30:00,82.9,75.0,30.32,West,270,0.0,1.7,77,0.00,,,0.00,WUHU21623XXSP,2013-07-15 15:30:00,
2013-07-15 11:35:00,83.8,76.2,30.32,North,0,0.0,1.7,78,0.00,,,0.00,WUHU21623XXSP,2013-07-15 15:35:00,
2013-07-15 11:40:00,84.4,75.6,30.32,WNW,292,0.0,0.0,75,0.00,,,0.00,WUHU21623XXSP,2013-07-15 15:40:00,
2013-07-15 11:45:00,84.0,75.6,30.31,WNW,292,2.6,3.0,76,0.00,,,0.00,WUHU21623XXSP,2013-07-15 15:45:00,
2013-07-15 11:50:00,84.6,75.3,30.31,WNW,292,0.0,3.0,74,0.00,,,0.00,WUHU21623XXSP,2013-07-15 15:50:00,
2013-07-15 11:55:00,85.8,77.0,30.32,West,270,2.3,3.0,75,0.00,,,0.00,WUHU21623XXSP,2013-07-15 15:55:00,
2013-07-15 12:00:00,84.9,74.5,30.32,West,270,2.1,2.7,71,0.00,,,0.00,WUHU21623XXSP,2013-07-15 16:00:00,
2013-07-15 12:05:00,84.7,74.7,30.32,West,270,0.0,2.7,72,0.00,,,0.00,WUHU21623XXSP,2013-07-15 16:05:00,
2013-07-15 12:10:00,83.8,74.2,30.32,WNW,292,0.0,2.4,73,0.00,,,0.00,WUHU21623XXSP,2013-07-15 16:10:00,
2013-07-15 12:15:00,82.8,73.6,30.32,North,0,0.0,0.0,74,0.00,,,0.00,WUHU21623XXSP,2013-07-15 16:15:00,
2013-07-15 12:20:00,81.7,74.2,30.32,WNW,292,0.0,0.0,78,0.00,,,0.00,WUHU21623XXSP,2013-07-15 16:20:00,
2013-07-15 12:25:00,81.3,73.8,30.32,WNW,292,0.0,1.7,78,0.00,,,0.00,WUHU21623XXSP,2013-07-15 16:25:00,
2013-07-15 12:30:00,82.6,75.1,30.32,WNW,292,0.0,1.7,78,0.00,,,0.00,WUHU21623XXSP,2013-07-15 16:30:00,
2013-07-15 12:35:00,82.8,74.0,30.32,WNW,292,0.0,0.0,75,0.00,,,0.00,WUHU21623XXSP,2013-07-15 16:35:00,
2013-07-15 12:41:00,82.2,73.5,30.32,WNW,292,0.0,0.0,75,0.00,,,0.00,WUHU21623XXSP,2013-07-15 16:41:00,
2013-07-15 12:46:00,82.8,74.0,30.32,WNW,292,0.0,0.0,75,0.00,,,0.00,WUHU21623XXSP,2013-07-15 16:46:00,
2013-07-15 12:51:00,83.3,74.5,30.32,WNW,292,0.0,0.0,75,0.00,,,0.00,WUHU21623XXSP,2013-07-15 16:51:00,
2013-07-15 12:56:00,84.7,75.5,30.32,WNW,292,0.0,0.0,74,0.00,,,0.00,WUHU21623XXSP,2013-07-15 16:56:00,
2013-07-15 13:01:00,84.0,74.0,30.31,WNW,292,0.0,1.3,72,0.00,,,0.00,WUHU21623XXSP,2013-07-15 17:01:00,
2013-07-15 13:06:00,84.9,75.3,30.31,West,270,2.1,2.4,73,0.00,,,0.00,WUHU21623XXSP,2013-07-15 17:06:00,
2013-07-15 13:11:00,84.4,74.0,30.31,NNE,22,0.0,2.4,71,0.00,,,0.00,WUHU21623XXSP,2013-07-15 17:11:00,
2013-07-15 13:16:00,83.5,73.5,30.31,SSW,202,2.6,3.0,72,0.00,,,0.00,WUHU21623XXSP,2013-07-15 17:16:00,
2013-07-15 13:21:00,83.1,74.4,30.31,WNW,292,0.0,3.0,75,0.00,,,0.00,WUHU21623XXSP,2013-07-15 17:21:00,
2013-07-15 13:27:00,83.5,75.1,30.31,WNW,292,0.0,3.0,76,0.00,,,0.00,WUHU21623XXSP,2013-07-15 17:27:00,
2013-07-15 13:32:00,85.1,75.5,30.31,North,0,0.0,0.0,73,0.00,,,0.00,WUHU21623XXSP,2013-07-15 17:32:00,
2013-07-15 13:37:00,85.3,72.6,30.30,East,90,2.1,2.4,66,0.00,,,0.00,WUHU21623XXSP,2013-07-15 17:37:00,
2013-07-15 13:42:00,83.8,73.0,30.30,SSW,202,0.0,5.1,70,0.00,,,0.00,WUHU21623XXSP,2013-07-15 17:42:00,
2013-07-15 13:47:00,82.9,74.2,30.30,WNW,292,0.0,5.1,75,0.00,,,0.00,WUHU21623XXSP,2013-07-15 17:47:00,
2013-07-15 13:52:00,82.8,74.4,30.30,WNW,292,0.0,0.0,76,0.00,,,0.00,WUHU21623XXSP,2013-07-15 17:52:00,
2013-07-15 13:58:00,82.2,73.9,30.30,WNW,292,0.0,0.0,76,0.00,,,0.00,WUHU21623XXSP,2013-07-15 17:58:00,
2013-07-15 14:03:00,81.7,72.6,30.30,West,270,0.0,0.0,74,0.00,,,0.00,WUHU21623XXSP,2013-07-15 18:03:00,
2013-07-15 14:08:00,82.0,73.3,30.30,WNW,292,0.0,0.0,75,0.00,,,0.00,WUHU21623XXSP,2013-07-15 18:08:00,
2013-07-15 14:13:00,82.6,73.0,30.30,North,0,0.9,1.0,73,0.00,,,0.00,WUHU21623XXSP,2013-07-15 18:13:00,
2013-07-15 14:19:00,84.0,75.6,30.30,North,0,0.0,1.0,76,0.00,,,0.00,WUHU21623XXSP,2013-07-15 18:19:00,
2013-07-15 14:24:00,85.3,75.7,30.30,WNW,292,0.0,0.0,73,0.00,,,0.00,WUHU21623XXSP,2013-07-15 18:24:00,
2013-07-15 14:29:00,86.7,75.8,30.30,WNW,292,0.0,0.0,70,0.00,,,0.00,WUHU21623XXSP,2013-07-15 18:29:00,
2013-07-15 14:34:00,87.1,76.2,30.29,WNW,292,0.0,17.4,70,0.00,,,0.00,WUHU21623XXSP,2013-07-15 18:34:00,
2013-07-15 14:39:00,87.1,75.3,30.29,WNW,292,0.0,17.4,68,0.00,,,0.00,WUHU21623XXSP,2013-07-15 18:39:00,
2013-07-15 14:44:00,87.4,75.1,30.29,WNW,292,1.4,1.7,67,0.00,,,0.00,WUHU21623XXSP,2013-07-15 18:44:00,
2013-07-15 14:49:00,87.6,75.3,30.29,North,0,0.0,1.7,67,0.00,,,0.00,WUHU21623XXSP,2013-07-15 18:49:00,
2013-07-15 14:54:00,86.2,74.4,30.29,WNW,292,0.0,1.7,68,0.00,,,0.00,WUHU21623XXSP,2013-07-15 18:54:00,
2013-07-15 14:59:00,84.9,74.1,30.28,WNW,292,0.0,0.0,70,0.00,,,0.00,WUHU21623XXSP,2013-07-15 18:59:00,
2013-07-15 15:04:00,83.5,73.5,30.28,WNW,292,0.0,0.0,72,0.00,,,0.00,WUHU21623XXSP,2013-07-15 19:04:00,
2013-07-15 15:09:00,83.5,74.3,30.28,West,270,0.0,0.0,74,0.00,,,0.00,WUHU21623XXSP,2013-07-15 19:09:00,
2013-07-15 15:14:00,83.8,73.8,30.28,West,270,0.0,2.7,72,0.00,,,0.00,WUHU21623XXSP,2013-07-15 19:14:00,
2013-07-15 15:19:00,84.4,73.6,30.28,SSW,202,0.0,2.7,70,0.00,,,0.00,WUHU21623XXSP,2013-07-15 19:19:00,
2013-07-15 15:24:00,84.6,73.8,30.28,North,0,0.0,1.3,70,0.00,,,0.00,WUHU21623XXSP,2013-07-15 19:24:00,
2013-07-15 15:30:00,84.7,74.3,30.27,WNW,292,0.0,1.3,71,0.00,,,0.00,WUHU21623XXSP,2013-07-15 19:30:00,
2013-07-15 15:35:00,84.9,74.1,30.27,West,270,0.0,0.0,70,0.00,,,0.00,WUHU21623XXSP,2013-07-15 19:35:00,
2013-07-15 15:40:00,85.6,73.9,30.27,West,270,1.4,3.0,68,0.00,,,0.00,WUHU21623XXSP,2013-07-15 19:40:00,
2013-07-15 15:45:00,85.8,74.1,30.27,North,0,0.0,3.0,68,0.00,,,0.00,WUHU21623XXSP,2013-07-15 19:45:00,
2013-07-15 15:50:00,85.1,72.9,30.26,North,0,0.0,1.7,67,0.00,,,0.00,WUHU21623XXSP,2013-07-15 19:50:00,
2013-07-15 15:55:00,84.6,72.8,30.26,North,0,0.0,0.0,68,0.00,,,0.00,WUHU21623XXSP,2013-07-15 19:55:00,
2013-07-15 16:00:00,84.2,73.4,30.26,North,0,0.0,0.0,70,0.00,,,0.00,WUHU21623XXSP,2013-07-15 20:00:00,
2013-07-15 16:05:00,84.0,73.2,30.26,WNW,292,0.0,1.9,70,0.00,,,0.00,WUHU21623XXSP,2013-07-15 20:05:00,
2013-07-15 16:10:00,84.0,72.8,30.25,WNW,292,1.4,1.9,69,0.00,,,0.00,WUHU21623XXSP,2013-07-15 20:10:00,
2013-07-15 16:16:00,84.0,72.8,30.25,WNW,292,0.0,1.7,69,0.00,,,0.00,WUHU21623XXSP,2013-07-15 20:16:00,
2013-07-15 16:21:00,84.0,72.3,30.25,North,0,0.0,0.0,68,0.00,,,0.00,WUHU21623XXSP,2013-07-15 20:21:00,
2013-07-15 16:27:00,84.0,72.3,30.25,NNE,22,0.0,0.0,68,0.00,,,0.00,WUHU21623XXSP,2013-07-15 20:27:00,
2013-07-15 16:32:00,84.2,73.0,30.25,North,0,0.0,0.0,69,0.00,,,0.00,WUHU21623XXSP,2013-07-15 20:32:00,
2013-07-15 16:37:00,84.0,72.3,30.25,WNW,292,0.0,0.0,68,0.00,,,0.00,WUHU21623XXSP,2013-07-15 20:37:00,
2013-07-15 16:42:00,84.0,72.8,30.24,WNW,292,0.0,0.0,69,0.00,,,0.00,WUHU21623XXSP,2013-07-15 20:42:00,
2013-07-15 16:47:00,84.2,74.2,30.24,WNW,292,0.0,0.0,72,0.00,,,0.00,WUHU21623XXSP,2013-07-15 20:47:00,
2013-07-15 16:52:00,84.0,73.2,30.24,West,270,0.0,0.0,70,0.00,,,0.00,WUHU21623XXSP,2013-07-15 20:52:00,
2013-07-15 16:57:00,84.0,74.0,30.24,WNW,292,0.0,0.0,72,0.00,,,0.00,WUHU21623XXSP,2013-07-15 20:57:00,
2013-07-15 17:02:00,84.0,73.6,30.24,North,0,0.0,0.0,71,0.00,,,0.00,WUHU21623XXSP,2013-07-15 21:02:00,
2013-07-15 17:07:00,84.2,73.8,30.24,West,270,0.0,1.7,71,0.00,,,0.00,WUHU21623XXSP,2013-07-15 21:07:00,
2013-07-15 17:12:00,84.6,73.8,30.24,NNE,22,1.2,1.7,70,0.00,,,0.00,WUHU21623XXSP,2013-07-15 21:12:00,
2013-07-15 17:17:00,84.7,73.0,30.23,NNE,22,0.0,1.3,68,0.00,,,0.00,WUHU21623XXSP,2013-07-15 21:17:00,
2013-07-15 17:23:00,84.7,72.6,30.23,North,0,0.0,1.3,67,0.00,,,0.00,WUHU21623XXSP,2013-07-15 21:23:00,
2013-07-15 17:28:00,84.6,73.3,30.23,North,0,0.0,0.0,69,0.00,,,0.00,WUHU21623XXSP,2013-07-15 21:28:00,
2013-07-15 17:33:00,84.4,72.7,30.23,NNE,22,0.0,0.0,68,0.00,,,0.00,WUHU21623XXSP,2013-07-15 21:33:00,
2013-07-15 17:38:00,84.2,73.0,30.23,North,0,0.0,0.0,69,0.00,,,0.00,WUHU21623XXSP,2013-07-15 21:38:00,
2013-07-15 17:43:00,84.0,73.2,30.23,WNW,292,0.0,0.0,70,0.00,,,0.00,WUHU21623XXSP,2013-07-15 21:43:00,
2013-07-15 17:48:00,83.8,73.4,30.23,North,0,0.0,0.0,71,0.00,,,0.00,WUHU21623XXSP,2013-07-15 21:48:00,
2013-07-15 17:53:00,84.0,73.2,30.23,NNE,22,0.0,0.0,70,0.00,,,0.00,WUHU21623XXSP,2013-07-15 21:53:00,
2013-07-15 17:59:00,84.0,73.2,30.23,NNE,22,0.0,0.0,70,0.00,,,0.00,WUHU21623XXSP,2013-07-15 21:59:00,
2013-07-15 18:04:00,84.0,72.3,30.23,NNE,22,0.0,0.0,68,0.00,,,0.00,WUHU21623XXSP,2013-07-15 22:04:00,
2013-07-15 18:09:00,84.2,72.1,30.24,NNE,22,0.0,0.0,67,0.00,,,0.00,WUHU21623XXSP,2013-07-15 22:09:00,
2013-07-15 18:14:00,84.2,72.5,30.23,NNE,22,0.0,0.0,68,0.00,,,0.00,WUHU21623XXSP,2013-07-15 22:14:00,
2013-07-15 18:19:00,84.2,72.1,30.23,North,0,0.0,0.0,67,0.00,,,0.00,WUHU21623XXSP,2013-07-15 22:19:00,
2013-07-15 18:24:00,84.0,72.3,30.23,North,0,0.0,0.0,68,0.00,,,0.00,WUHU21623XXSP,2013-07-15 22:24:00,
2013-07-15 18:29:00,84.0,72.3,30.23,NNE,22,0.0,0.0,68,0.00,,,0.00,WUHU21623XXSP,2013-07-15 22:29:00,
2013-07-15 18:34:00,84.0,72.8,30.23,NNE,22,1.7,2.4,69,0.00,,,0.00,WUHU21623XXSP,2013-07-15 22:34:00,
2013-07-15 18:39:00,83.8,72.6,30.23,NNE,22,0.0,2.4,69,0.00,,,0.00,WUHU21623XXSP,2013-07-15 22:39:00,
2013-07-15 18:44:00,83.8,71.2,30.23,NNE,22,0.0,1.9,66,0.00,,,0.00,WUHU21623XXSP,2013-07-15 22:44:00,
2013-07-15 18:49:00,84.0,71.9,30.23,East,90,1.4,1.7,67,0.00,,,0.00,WUHU21623XXSP,2013-07-15 22:49:00,
2013-07-15 18:54:00,83.8,72.1,30.23,NNE,22,0.0,1.7,68,0.00,,,0.00,WUHU21623XXSP,2013-07-15 22:54:00,
2013-07-15 18:59:00,83.8,72.1,30.23,NNE,22,0.0,1.7,68,0.00,,,0.00,WUHU21623XXSP,2013-07-15 22:59:00,
2013-07-15 19:04:00,83.7,72.9,30.23,NNE,22,0.0,0.0,70,0.00,,,0.00,WUHU21623XXSP,2013-07-15 23:04:00,
2013-07-15 19:09:00,83.3,72.5,30.23,NNE,22,0.0,0.0,70,0.00,,,0.00,WUHU21623XXSP,2013-07-15 23:09:00,
2013-07-15 19:14:00,83.5,72.2,30.23,East,90,0.0,0.0,69,0.00,,,0.00,WUHU21623XXSP,2013-07-15 23:14:00,
2013-07-15 19:19:00,83.5,71.8,30.23,NNE,22,0.0,0.0,68,0.00,,,0.00,WUHU21623XXSP,2013-07-15 23:19:00,
2013-07-15 19:24:00,83.5,73.1,30.23,NNE,22,0.0,0.0,71,0.00,,,0.00,WUHU21623XXSP,2013-07-15 23:24:00,
2013-07-15 19:29:00,83.3,72.9,30.24,NNE,22,0.0,0.0,71,0.00,,,0.00,WUHU21623XXSP,2013-07-15 23:29:00,
2013-07-15 19:34:00,83.1,73.1,30.23,NNE,22,0.0,0.0,72,0.00,,,0.00,WUHU21623XXSP,2013-07-15 23:34:00,
2013-07-15 19:40:00,82.6,73.8,30.24,North,0,0.0,0.0,75,0.00,,,0.00,WUHU21623XXSP,2013-07-15 23:40:00,
2013-07-15 19:45:00,82.2,73.9,30.23,NNE,22,0.0,0.0,76,0.00,,,0.00,WUHU21623XXSP,2013-07-15 23:45:00,
2013-07-15 19:50:00,82.2,74.3,30.24,East,90,0.0,1.3,77,0.00,,,0.00,WUHU21623XXSP,2013-07-15 23:50:00,
2013-07-15 19:55:00,82.2,74.7,30.23,NNE,22,0.0,1.3,78,0.00,,,0.00,WUHU21623XXSP,2013-07-15 23:55:00,
2013-07-15 20:00:00,82.2,75.1,30.24,East,90,0.0,0.0,79,0.00,,,0.00,WUHU21623XXSP,2013-07-16 00:00:00,
2013-07-15 20:05:00,82.0,75.0,30.23,East,90,0.0,0.0,79,0.00,,,0.00,WUHU21623XXSP,2013-07-16 00:05:00,
2013-07-15 20:10:00,81.9,74.8,30.24,ESE,112,0.0,0.0,79,0.00,,,0.00,WUHU21623XXSP,2013-07-16 00:10:00,
2013-07-15 20:15:00,81.7,75.0,30.23,ESE,112,0.0,0.0,80,0.00,,,0.00,WUHU21623XXSP,2013-07-16 00:15:00,
2013-07-15 20:20:00,81.3,74.7,30.23,NNE,22,0.0,0.0,80,0.00,,,0.00,WUHU21623XXSP,2013-07-16 00:20:00,
2013-07-15 20:25:00,80.8,74.5,30.23,WNW,292,0.0,0.0,81,0.00,,,0.00,WUHU21623XXSP,2013-07-16 00:25:00,
2013-07-15 20:30:00,80.4,74.4,30.24,South,180,0.0,0.0,82,0.00,,,0.00,WUHU21623XXSP,2013-07-16 00:30:00,
2013-07-15 20:35:00,79.9,73.9,30.24,South,180,0.0,0.0,82,0.00,,,0.00,WUHU21623XXSP,2013-07-16 00:35:00,
2013-07-15 20:41:00,79.9,73.9,30.25,South,180,0.0,0.0,82,0.00,,,0.00,WUHU21623XXSP,2013-07-16 00:41:00,
2013-07-15 20:46:00,79.0,73.4,30.24,ESE,112,0.0,0.0,83,0.00,,,0.00,WUHU21623XXSP,2013-07-16 00:46:00,
2013-07-15 20:51:00,78.6,73.0,30.25,East,90,0.0,0.0,83,0.00,,,0.00,WUHU21623XXSP,2013-07-16 00:51:00,
2013-07-15 20:56:00,78.1,72.5,30.25,NNE,22,1.2,1.3,83,0.00,,,0.00,WUHU21623XXSP,2013-07-16 00:56:00,
2013-07-15 21:01:00,77.9,72.7,30.25,East,90,0.0,1.3,84,0.00,,,0.00,WUHU21623XXSP,2013-07-16 01:01:00,
2013-07-15 21:06:00,77.5,72.0,30.25,West,270,0.0,1.3,83,0.00,,,0.00,WUHU21623XXSP,2013-07-16 01:06:00,
2013-07-15 21:11:00,77.2,72.3,30.25,ESE,112,0.0,0.0,85,0.00,,,0.00,WUHU21623XXSP,2013-07-16 01:11:00,
2013-07-15 21:16:00,76.8,72.0,30.25,ESE,112,0.0,0.0,85,0.00,,,0.00,WUHU21623XXSP,2013-07-16 01:16:00,
2013-07-15 21:21:00,76.6,71.8,30.25,ESE,112,0.0,0.0,85,0.00,,,0.00,WUHU21623XXSP,2013-07-16 01:21:00,
2013-07-15 21:26:00,75.9,71.1,30.25,East,90,0.0,0.0,85,0.00,,,0.00,WUHU21623XXSP,2013-07-16 01:26:00,
2013-07-15 21:32:00,75.7,71.3,30.25,ESE,112,0.0,0.0,86,0.00,,,0.00,WUHU21623XXSP,2013-07-16 01:32:00,
2013-07-15 21:37:00,75.4,70.9,30.25,East,90,0.0,0.0,86,0.00,,,0.00,WUHU21623XXSP,2013-07-16 01:37:00,
2013-07-15 21:42:00,75.2,70.8,30.25,East,90,0.0,0.0,86,0.00,,,0.00,WUHU21623XXSP,2013-07-16 01:42:00,
2013-07-15 21:47:00,75.0,70.6,30.25,ESE,112,0.0,0.0,86,0.00,,,0.00,WUHU21623XXSP,2013-07-16 01:47:00,
2013-07-15 21:53:00,74.8,70.4,30.25,NNE,22,0.0,0.0,86,0.00,,,0.00,WUHU21623XXSP,2013-07-16 01:53:00,
2013-07-15 21:58:00,74.7,70.6,30.25,East,90,0.0,0.0,87,0.00,,,0.00,WUHU21623XXSP,2013-07-16 01:58:00,
2013-07-15 22:03:00,74.5,70.4,30.26,ESE,112,0.0,0.0,87,0.00,,,0.00,WUHU21623XXSP,2013-07-16 02:03:00,
2013-07-15 22:08:00,74.1,70.0,30.26,SSW,202,0.0,0.0,87,0.00,,,0.00,WUHU21623XXSP,2013-07-16 02:08:00,
2013-07-15 22:13:00,74.1,70.0,30.26,ESE,112,0.0,0.0,87,0.00,,,0.00,WUHU21623XXSP,2013-07-16 02:13:00,
2013-07-15 22:18:00,73.9,69.9,30.27,ESE,112,0.0,1.7,87,0.00,,,0.00,WUHU21623XXSP,2013-07-16 02:18:00,
2013-07-15 22:23:00,73.9,69.9,30.27,ESE,112,0.0,1.7,87,0.00,,,0.00,WUHU21623XXSP,2013-07-16 02:23:00,
2013-07-15 22:28:00,74.1,70.0,30.27,East,90,0.0,0.0,87,0.00,,,0.00,WUHU21623XXSP,2013-07-16 02:28:00,
2013-07-15 22:33:00,74.1,70.0,30.28,South,180,0.0,0.0,87,0.00,,,0.00,WUHU21623XXSP,2013-07-16 02:33:00,
2013-07-15 22:38:00,74.1,70.0,30.28,ESE,112,0.0,0.0,87,0.00,,,0.00,WUHU21623XXSP,2013-07-16 02:38:00,
2013-07-15 22:43:00,74.1,70.0,30.28,East,90,0.0,0.0,87,0.00,,,0.00,WUHU21623XXSP,2013-07-16 02:43:00,
2013-07-15 22:48:00,74.3,70.2,30.28,East,90,0.0,0.0,87,0.00,,,0.00,WUHU21623XXSP,2013-07-16 02:48:00,
2013-07-15 22:53:00,74.8,70.8,30.28,East,90,0.0,0.0,87,0.00,,,0.00,WUHU21623XXSP,2013-07-16 02:53:00,
2013-07-15 22:58:00,74.8,70.8,30.28,East,90,0.0,0.0,87,0.00,,,0.00,WUHU21623XXSP,2013-07-16 02:58:00,
2013-07-15 23:04:00,75.0,70.9,30.29,East,90,1.2,1.7,87,0.00,,,0.00,WUHU21623XXSP,2013-07-16 03:04:00,
2013-07-15 23:09:00,75.0,70.9,30.29,East,90,0.0,1.7,87,0.00,,,0.00,WUHU21623XXSP,2013-07-16 03:09:00,
2013-07-15 23:14:00,75.0,70.9,30.30,NNE,22,1.2,1.3,87,0.00,,,0.00,WUHU21623XXSP,2013-07-16 03:14:00,
2013-07-15 23:19:00,74.8,70.8,30.29,NNE,22,0.0,1.7,87,0.00,,,0.00,WUHU21623XXSP,2013-07-16 03:19:00,
2013-07-15 23:24:00,74.5,70.4,30.29,NNE,22,0.0,1.7,87,0.00,,,0.00,WUHU21623XXSP,2013-07-16 03:24:00,
2013-07-15 23:29:00,74.5,70.4,30.29,East,90,0.0,0.0,87,0.00,,,0.00,WUHU21623XXSP,2013-07-16 03:29:00,
2013-07-15 23:34:00,74.3,70.2,30.30,South,180,0.0,0.0,87,0.00,,,0.00,WUHU21623XXSP,2013-07-16 03:34:00,
2013-07-15 23:40:00,74.1,70.0,30.30,South,180,0.0,0.0,87,0.00,,,0.00,WUHU21623XXSP,2013-07-16 03:40:00,
2013-07-15 23:45:00,74.1,70.0,30.30,ESE,112,0.0,0.0,87,0.00,,,0.00,WUHU21623XXSP,2013-07-16 03:45:00,
2013-07-15 23:50:00,74.1,70.4,30.30,South,180,0.0,0.0,88,0.00,,,0.00,WUHU21623XXSP,2013-07-16 03:50:00,
2013-07-15 23:55:00,74.1,70.4,30.30,South,180,0.0,0.0,88,0.00,,,0.00,WUHU21623XXSP,2013-07-16 03:55:00,